createdAt,value
2018-05-13T00:01:09.550Z,57.40
2018-05-13T00:03:37.144Z,57.40
2018-05-13T00:06:04.716Z,57.40
2018-05-13T00:08:32.319Z,57.40
2018-05-13T00:10:59.866Z,58.00
2018-05-13T00:13:27.397Z,57.30
2018-05-13T00:15:55.008Z,57.40
2018-05-13T00:18:22.563Z,57.30
2018-05-13T00:20:50.111Z,57.30
2018-05-13T00:23:17.707Z,57.30
2018-05-13T00:25:45.256Z,57.30
2018-05-13T00:28:12.800Z,57.20
2018-05-13T00:30:40.374Z,57.30
2018-05-13T00:33:07.909Z,57.20
2018-05-13T00:35:35.489Z,57.20
2018-05-13T00:38:03.075Z,57.20
2018-05-13T00:40:31.403Z,57.20
2018-05-13T00:42:59.725Z,58.10
2018-05-13T00:45:27.321Z,58.10
2018-05-13T00:47:54.879Z,57.70
2018-05-13T00:50:22.487Z,58.00
2018-05-13T00:52:50.853Z,58.00
2018-05-13T00:55:18.395Z,58.00
2018-05-13T00:57:46.063Z,58.00
2018-05-13T01:00:13.635Z,58.40
2018-05-13T01:02:41.232Z,58.90
2018-05-13T01:05:08.823Z,58.50
2018-05-13T01:07:36.400Z,58.40
2018-05-13T01:10:03.961Z,58.50
2018-05-13T01:12:31.522Z,58.70
2018-05-13T01:14:59.112Z,58.40
2018-05-13T01:17:26.658Z,58.60
2018-05-13T01:19:54.213Z,59.10
2018-05-13T01:22:21.794Z,58.90
2018-05-13T01:24:49.445Z,59.10
2018-05-13T01:27:17.004Z,59.20
2018-05-13T01:29:44.544Z,59.00
2018-05-13T01:32:12.161Z,59.30
2018-05-13T01:34:39.725Z,59.20
2018-05-13T01:37:08.034Z,59.40
2018-05-13T01:39:35.636Z,59.40
2018-05-13T01:42:03.170Z,59.50
2018-05-13T01:44:31.430Z,58.90
2018-05-13T01:46:58.986Z,59.30
2018-05-13T01:49:26.537Z,59.40
2018-05-13T01:51:54.102Z,59.30
2018-05-13T01:54:22.409Z,59.80
2018-05-13T01:56:49.995Z,59.80
2018-05-13T01:59:17.570Z,59.60
2018-05-13T02:01:45.111Z,60.00
2018-05-13T02:04:12.723Z,60.10
2018-05-13T02:06:41.039Z,60.00
2018-05-13T02:09:08.584Z,60.00
2018-05-13T02:11:36.141Z,59.90
2018-05-13T02:14:03.721Z,59.70
2018-05-13T02:16:31.306Z,59.90
2018-05-13T02:18:58.928Z,60.00
2018-05-13T02:21:26.536Z,60.30
2018-05-13T02:23:54.084Z,60.70
2018-05-13T02:26:21.618Z,61.10
2018-05-13T02:28:49.983Z,61.00
2018-05-13T02:31:17.641Z,61.00
2018-05-13T02:33:45.127Z,61.40
2018-05-13T02:36:12.711Z,60.90
2018-05-13T02:38:40.259Z,61.00
2018-05-13T02:41:07.840Z,60.90
2018-05-13T02:43:35.393Z,61.60
2018-05-13T02:46:03.790Z,61.70
2018-05-13T02:48:31.378Z,61.70
2018-05-13T02:50:58.940Z,60.80
2018-05-13T02:53:26.485Z,60.80
2018-05-13T02:55:54.081Z,60.90
2018-05-13T02:58:21.637Z,60.80
2018-05-13T03:00:49.190Z,61.80
2018-05-13T03:03:16.755Z,61.50
2018-05-13T03:05:44.327Z,61.30
2018-05-13T03:08:11.875Z,62.30
2018-05-13T03:10:39.482Z,61.70
2018-05-13T03:13:07.019Z,61.40
2018-05-13T03:15:34.575Z,61.80
2018-05-13T03:18:02.210Z,61.60
2018-05-13T03:20:29.765Z,62.50
2018-05-13T03:22:57.362Z,62.70
2018-05-13T03:25:24.899Z,62.70
2018-05-13T03:27:52.433Z,63.10
2018-05-13T03:30:19.996Z,62.60
2018-05-13T03:32:47.582Z,63.30
2018-05-13T03:35:15.348Z,63.40
2018-05-13T03:37:42.946Z,63.30
2018-05-13T03:40:10.531Z,63.60
2018-05-13T03:42:38.865Z,64.60
2018-05-13T03:45:06.413Z,63.80
2018-05-13T03:47:34.019Z,63.50
2018-05-13T03:50:02.337Z,63.80
2018-05-13T03:52:29.874Z,63.80
2018-05-13T03:54:58.230Z,63.70
2018-05-13T03:57:25.774Z,63.70
2018-05-13T03:59:53.323Z,64.10
2018-05-13T04:02:21.668Z,63.70
2018-05-13T04:04:49.245Z,63.70
2018-05-13T04:07:16.924Z,63.60
2018-05-13T04:09:56.932Z,63.90
2018-05-13T04:12:36.946Z,64.70
2018-05-13T04:15:16.246Z,64.70
2018-05-13T04:17:43.788Z,63.80
2018-05-13T04:20:11.379Z,63.60
2018-05-13T04:22:38.939Z,64.50
2018-05-13T04:25:06.540Z,64.50
2018-05-13T04:27:34.891Z,64.30
2018-05-13T04:30:02.439Z,64.00
2018-05-13T04:32:30.020Z,64.20
2018-05-13T04:34:57.557Z,64.70
2018-05-13T04:37:25.121Z,64.80
2018-05-13T04:39:52.684Z,63.80
2018-05-13T04:42:20.221Z,63.90
2018-05-13T04:44:47.795Z,63.50
2018-05-13T04:47:15.346Z,64.10
2018-05-13T04:49:42.928Z,63.60
2018-05-13T04:52:10.499Z,63.70
2018-05-13T04:54:38.046Z,63.80
2018-05-13T04:57:05.628Z,63.70
2018-05-13T04:59:33.165Z,63.20
2018-05-13T05:02:00.724Z,63.40
2018-05-13T05:04:28.304Z,63.30
2018-05-13T05:06:55.837Z,62.20
2018-05-13T05:09:23.483Z,62.10
2018-05-13T05:11:51.033Z,61.00
2018-05-13T05:14:18.609Z,61.00
2018-05-13T05:16:46.215Z,61.10
2018-05-13T05:19:13.761Z,59.60
2018-05-13T05:21:41.339Z,59.90
2018-05-13T05:24:08.886Z,59.50
2018-05-13T05:26:36.510Z,58.80
2018-05-13T05:29:04.083Z,58.80
2018-05-13T05:31:31.674Z,58.90
2018-05-13T05:33:59.215Z,58.70
2018-05-13T05:36:26.753Z,57.60
2018-05-13T05:38:54.350Z,56.80
2018-05-13T05:41:21.894Z,56.30
2018-05-13T05:43:49.433Z,57.30
2018-05-13T05:46:17.001Z,55.40
2018-05-13T05:48:44.609Z,55.20
2018-05-13T05:51:12.222Z,55.30
2018-05-13T05:53:39.779Z,54.20
2018-05-13T05:56:07.361Z,54.60
2018-05-13T05:58:34.913Z,54.40
2018-05-13T06:01:02.459Z,54.50
2018-05-13T06:03:30.040Z,53.50
2018-05-13T06:05:57.702Z,54.30
2018-05-13T06:08:25.238Z,53.40
2018-05-13T06:10:52.811Z,53.60
2018-05-13T06:13:20.362Z,53.00
2018-05-13T06:15:47.939Z,52.20
2018-05-13T06:18:15.531Z,51.30
2018-05-13T06:20:43.090Z,51.90
2018-05-13T06:23:10.639Z,51.40
2018-05-13T06:25:39.019Z,51.20
2018-05-13T06:28:06.558Z,51.20
2018-05-13T06:30:34.098Z,50.10
2018-05-13T06:33:01.674Z,49.20
2018-05-13T06:35:29.223Z,49.30
2018-05-13T06:37:56.768Z,49.70
2018-05-13T06:40:24.404Z,49.10
2018-05-13T06:42:52.717Z,48.60
2018-05-13T06:45:20.310Z,48.60
2018-05-13T06:47:47.885Z,48.50
2018-05-13T06:50:15.426Z,49.20
2018-05-13T06:52:43.026Z,47.50
2018-05-13T06:55:11.337Z,47.70
2018-05-13T06:57:38.894Z,47.70
2018-05-13T07:00:06.488Z,47.10
2018-05-13T07:02:34.035Z,48.50
2018-05-13T07:05:01.614Z,46.80
2018-05-13T07:07:29.223Z,47.60
2018-05-13T07:09:56.779Z,47.00
2018-05-13T07:12:24.314Z,44.40
2018-05-13T07:14:51.899Z,44.20
2018-05-13T07:17:19.461Z,45.60
2018-05-13T07:19:47.029Z,45.00
2018-05-13T07:22:14.584Z,46.80
2018-05-13T07:24:42.903Z,46.30
2018-05-13T07:27:10.475Z,46.00
2018-05-13T07:29:38.039Z,45.10
2018-05-13T07:32:05.611Z,45.10
2018-05-13T07:34:33.175Z,44.20
2018-05-13T07:37:00.817Z,44.10
2018-05-13T07:39:28.357Z,44.40
2018-05-13T07:41:55.968Z,44.10
2018-05-13T07:44:24.299Z,44.50
2018-05-13T07:46:51.842Z,44.50
2018-05-13T07:49:19.415Z,43.00
2018-05-13T07:51:46.962Z,42.20
2018-05-13T07:54:14.544Z,40.90
2018-05-13T07:56:42.100Z,40.80
2018-05-13T07:59:09.659Z,41.50
2018-05-13T08:01:37.258Z,40.60
2018-05-13T08:04:05.575Z,40.70
2018-05-13T08:06:33.114Z,40.70
2018-05-13T08:09:00.700Z,40.30
2018-05-13T08:11:28.263Z,40.20
2018-05-13T08:13:55.822Z,40.20
2018-05-13T08:16:23.382Z,39.80
2018-05-13T08:18:50.917Z,41.50
2018-05-13T08:21:19.258Z,39.10
2018-05-13T08:23:46.803Z,39.10
2018-05-13T08:26:14.388Z,39.30
2018-05-13T08:28:41.973Z,40.10
2018-05-13T08:31:09.559Z,38.80
2018-05-13T08:33:37.432Z,39.10
2018-05-13T08:36:04.991Z,39.80
2018-05-13T08:38:32.575Z,39.00
2018-05-13T08:41:00.191Z,38.80
2018-05-13T08:43:27.832Z,39.80
2018-05-13T08:45:55.382Z,40.40
2018-05-13T08:48:22.955Z,39.90
2018-05-13T08:50:51.262Z,39.20
2018-05-13T08:53:18.914Z,39.20
2018-05-13T08:55:46.499Z,36.80
2018-05-13T08:58:14.033Z,38.30
2018-05-13T09:00:41.590Z,38.80
2018-05-13T09:03:09.923Z,38.00
2018-05-13T09:05:37.539Z,38.00
2018-05-13T09:08:05.096Z,37.20
2018-05-13T09:10:32.637Z,39.10
2018-05-13T09:13:00.981Z,40.00
2018-05-13T09:15:28.533Z,39.90
2018-05-13T09:17:56.111Z,36.40
2018-05-13T09:20:23.661Z,37.70
2018-05-13T09:22:51.249Z,36.70
2018-05-13T09:25:18.805Z,37.00
2018-05-13T09:27:46.388Z,36.90
2018-05-13T09:30:13.974Z,36.70
2018-05-13T09:32:41.523Z,36.90
2018-05-13T09:35:09.099Z,37.00
2018-05-13T09:37:36.669Z,36.10
2018-05-13T09:40:04.218Z,35.50
2018-05-13T09:42:31.791Z,35.70
2018-05-13T09:44:59.343Z,35.30
2018-05-13T09:47:26.959Z,35.60
2018-05-13T09:49:54.516Z,34.90
2018-05-13T09:52:22.833Z,33.60
2018-05-13T09:54:50.400Z,33.60
2018-05-13T09:57:17.958Z,34.80
2018-05-13T09:59:45.530Z,36.40
2018-05-13T10:02:13.083Z,35.60
2018-05-13T10:04:40.726Z,34.30
2018-05-13T10:07:08.287Z,33.80
2018-05-13T10:09:35.882Z,32.20
2018-05-13T10:12:03.432Z,34.80
2018-05-13T10:14:30.984Z,32.90
2018-05-13T10:16:58.615Z,35.30
2018-05-13T10:19:26.236Z,34.40
2018-05-13T10:21:53.765Z,32.30
2018-05-13T10:24:21.308Z,32.90
2018-05-13T10:26:48.857Z,33.50
2018-05-13T10:29:16.448Z,32.80
2018-05-13T10:31:44.004Z,33.20
2018-05-13T10:34:11.596Z,32.50
2018-05-13T10:36:39.227Z,33.80
2018-05-13T10:39:06.779Z,35.00
2018-05-13T10:41:34.381Z,32.60
2018-05-13T10:44:01.936Z,35.00
2018-05-13T10:46:29.517Z,34.00
2018-05-13T10:48:57.105Z,34.10
2018-05-13T10:51:24.698Z,34.60
2018-05-13T10:53:52.279Z,34.50
2018-05-13T10:56:19.830Z,34.50
2018-05-13T10:58:47.387Z,34.50
2018-05-13T11:01:14.962Z,33.70
2018-05-13T11:03:42.515Z,33.00
2018-05-13T11:06:10.160Z,33.20
2018-05-13T11:08:37.698Z,34.20
2018-05-13T11:11:05.247Z,35.40
2018-05-13T11:13:33.597Z,35.70
2018-05-13T11:16:01.150Z,35.70
2018-05-13T11:18:28.717Z,33.60
2018-05-13T11:20:56.299Z,34.90
2018-05-13T11:23:24.621Z,32.60
2018-05-13T11:25:52.196Z,32.60
2018-05-13T11:28:19.757Z,33.50
2018-05-13T11:30:47.307Z,34.00
2018-05-13T11:33:14.920Z,33.90
2018-05-13T11:35:43.288Z,33.30
2018-05-13T11:38:11.601Z,32.00
2018-05-13T11:40:39.176Z,31.90
2018-05-13T11:43:06.711Z,34.40
2018-05-13T11:45:34.267Z,34.20
2018-05-13T11:48:01.860Z,33.30
2018-05-13T11:50:29.419Z,31.90
2018-05-13T11:52:57.023Z,33.20
2018-05-13T11:55:24.621Z,33.80
2018-05-13T11:57:52.167Z,33.50
2018-05-13T12:00:20.489Z,35.20
2018-05-13T12:02:48.073Z,35.20
2018-05-13T12:05:15.623Z,34.50
2018-05-13T12:07:43.192Z,34.30
2018-05-13T12:10:10.770Z,35.80
2018-05-13T12:12:39.204Z,34.50
2018-05-13T12:15:06.704Z,34.40
2018-05-13T12:17:35.036Z,36.20
2018-05-13T12:20:02.633Z,36.10
2018-05-13T12:22:31.075Z,35.90
2018-05-13T12:24:58.606Z,35.30
2018-05-13T12:27:26.974Z,35.60
2018-05-13T12:29:55.291Z,36.10
2018-05-13T12:32:22.852Z,36.00
2018-05-13T12:34:50.414Z,35.50
2018-05-13T12:37:17.968Z,36.30
2018-05-13T12:39:45.578Z,35.20
2018-05-13T12:42:13.122Z,35.00
2018-05-13T12:44:40.681Z,36.80
2018-05-13T12:47:08.257Z,37.70
2018-05-13T12:49:35.819Z,36.70
2018-05-13T12:52:03.387Z,35.60
2018-05-13T12:54:30.974Z,35.60
2018-05-13T12:56:58.654Z,33.90
2018-05-13T12:59:26.206Z,35.30
2018-05-13T13:01:53.764Z,35.20
2018-05-13T13:04:21.335Z,36.10
2018-05-13T13:06:48.877Z,35.90
2018-05-13T13:09:16.461Z,35.90
2018-05-13T13:11:44.039Z,34.30
2018-05-13T13:14:11.584Z,34.10
2018-05-13T13:16:39.153Z,35.50
2018-05-13T13:19:06.722Z,34.70
2018-05-13T13:21:34.263Z,34.10
2018-05-13T13:24:01.834Z,34.00
2018-05-13T13:26:29.420Z,34.30
2018-05-13T13:28:56.971Z,34.30
2018-05-13T13:31:24.578Z,34.60
2018-05-13T13:33:52.167Z,34.90
2018-05-13T13:36:19.739Z,34.50
2018-05-13T13:38:47.323Z,35.80
2018-05-13T13:41:14.891Z,36.70
2018-05-13T13:43:42.463Z,35.70
2018-05-13T13:46:10.795Z,37.30
2018-05-13T13:48:38.435Z,37.30
2018-05-13T13:51:05.987Z,34.80
2018-05-13T13:53:33.612Z,33.20
2018-05-13T13:56:01.155Z,34.40
2018-05-13T13:58:28.701Z,35.20
2018-05-13T14:00:56.247Z,35.90
2018-05-13T14:03:23.831Z,35.30
2018-05-13T14:05:51.392Z,35.50
2018-05-13T14:08:18.984Z,35.00
2018-05-13T14:10:46.541Z,35.70
2018-05-13T14:13:14.104Z,36.60
2018-05-13T14:15:41.691Z,34.20
2018-05-13T14:18:10.003Z,35.00
2018-05-13T14:20:37.632Z,35.00
2018-05-13T14:23:05.144Z,35.10
2018-05-13T14:25:32.695Z,34.70
2018-05-13T14:28:00.279Z,35.50
2018-05-13T14:30:27.837Z,35.20
2018-05-13T14:32:55.438Z,36.40
2018-05-13T14:35:23.855Z,34.90
2018-05-13T14:37:51.492Z,34.80
2018-05-13T14:40:19.047Z,35.70
2018-05-13T14:42:46.581Z,35.40
2018-05-13T14:45:14.167Z,34.50
2018-05-13T14:47:41.791Z,34.70
2018-05-13T14:50:09.357Z,35.80
2018-05-13T14:52:37.671Z,35.70
2018-05-13T14:55:05.248Z,35.70
2018-05-13T14:57:32.806Z,34.90
2018-05-13T15:00:01.148Z,35.30
2018-05-13T15:02:28.747Z,35.30
2018-05-13T15:04:56.395Z,36.40
2018-05-13T15:07:29.822Z,34.90
2018-05-13T15:09:57.365Z,36.20
2018-05-13T15:12:24.940Z,37.50
2018-05-13T15:14:52.521Z,35.00
2018-05-13T15:17:20.118Z,35.70
2018-05-13T15:19:47.656Z,35.40
2018-05-13T15:22:16.029Z,34.70
2018-05-13T15:24:43.588Z,35.40
2018-05-13T15:27:11.132Z,35.70
2018-05-13T15:29:38.976Z,36.30
2018-05-13T15:32:06.558Z,35.20
2018-05-13T15:34:34.265Z,34.40
2018-05-13T15:37:01.884Z,35.30
2018-05-13T15:39:29.498Z,33.80
2018-05-13T15:41:57.117Z,34.20
2018-05-13T15:44:24.685Z,33.30
2018-05-13T15:46:52.235Z,34.00
2018-05-13T15:49:19.805Z,34.30
2018-05-13T15:51:47.363Z,35.00
2018-05-13T15:54:14.960Z,34.40
2018-05-13T15:56:42.510Z,34.00
2018-05-13T15:59:10.059Z,34.00
2018-05-13T16:01:48.125Z,35.40
2018-05-13T16:04:16.992Z,36.90
2018-05-13T16:06:44.743Z,36.90
2018-05-13T16:09:12.299Z,34.30
2018-05-13T16:11:39.858Z,34.50
2018-05-13T16:14:07.435Z,34.20
2018-05-13T16:16:34.986Z,33.90
2018-05-13T16:19:02.626Z,33.20
2018-05-13T16:21:30.134Z,33.80
2018-05-13T16:23:57.691Z,33.00
2018-05-13T16:26:25.279Z,33.40
2018-05-13T16:28:52.846Z,33.60
2018-05-13T16:31:20.390Z,33.80
2018-05-13T16:33:47.971Z,33.30
2018-05-13T16:36:15.724Z,33.90
2018-05-13T16:38:43.290Z,34.80
2018-05-13T16:41:10.854Z,33.10
2018-05-13T16:43:38.439Z,33.80
2018-05-13T16:46:05.978Z,35.40
2018-05-13T16:48:33.545Z,34.50
2018-05-13T16:51:01.915Z,34.80
2018-05-13T16:53:29.496Z,34.80
2018-05-13T16:55:58.027Z,34.70
2018-05-13T16:58:25.581Z,34.40
2018-05-13T17:00:53.125Z,35.20
2018-05-13T17:03:20.694Z,35.70
2018-05-13T17:05:48.234Z,35.60
2018-05-13T17:08:15.850Z,35.60
2018-05-13T17:10:43.399Z,35.80
2018-05-13T17:13:10.959Z,35.70
2018-05-13T17:15:38.543Z,36.50
2018-05-13T17:18:06.094Z,36.40
2018-05-13T17:20:33.659Z,36.60
2018-05-13T17:23:01.227Z,36.60
2018-05-13T17:25:28.783Z,36.50
2018-05-13T17:27:56.407Z,37.00
2018-05-13T17:30:23.961Z,37.70
2018-05-13T17:32:51.571Z,37.50
2018-05-13T17:35:19.200Z,37.80
2018-05-13T17:37:46.770Z,38.40
2018-05-13T17:40:14.348Z,37.90
2018-05-13T17:42:41.907Z,39.10
2018-05-13T17:45:09.486Z,39.20
2018-05-13T17:47:37.819Z,40.00
2018-05-13T17:50:05.416Z,40.10
2018-05-13T17:52:33.768Z,40.70
2018-05-13T17:55:01.319Z,40.70
2018-05-13T17:57:31.010Z,41.10
2018-05-13T17:59:58.507Z,41.10
2018-05-13T18:02:26.073Z,41.30
2018-05-13T18:04:53.694Z,41.90
2018-05-13T18:07:21.243Z,41.90
2018-05-13T18:09:49.567Z,42.00
2018-05-13T18:12:17.147Z,42.00
2018-05-13T18:14:45.472Z,43.00
2018-05-13T18:17:13.848Z,42.80
2018-05-13T18:19:41.383Z,42.70
2018-05-13T18:22:08.931Z,42.70
2018-05-13T18:24:37.306Z,42.70
2018-05-13T18:27:05.625Z,43.00
2018-05-13T18:29:33.558Z,43.00
2018-05-13T18:32:01.132Z,43.10
2018-05-13T18:34:28.697Z,43.30
2018-05-13T18:36:56.245Z,43.90
2018-05-13T18:39:23.819Z,44.50
2018-05-13T18:41:51.376Z,44.50
2018-05-13T18:44:18.975Z,45.40
2018-05-13T18:46:46.561Z,46.00
2018-05-13T18:49:14.127Z,46.50
2018-05-13T18:51:42.644Z,46.30
2018-05-13T18:54:10.228Z,46.70
2018-05-13T18:56:37.794Z,46.80
2018-05-13T18:59:05.429Z,46.80
2018-05-13T19:01:33.009Z,46.80
2018-05-13T19:04:00.559Z,46.90
2018-05-13T19:06:28.159Z,46.60
2018-05-13T19:08:55.751Z,46.50
2018-05-13T19:11:24.073Z,47.30
2018-05-13T19:13:51.670Z,47.30
2018-05-13T19:16:19.256Z,47.10
2018-05-13T19:18:47.622Z,48.20
2018-05-13T19:21:15.195Z,48.20
2018-05-13T19:23:43.523Z,49.90
2018-05-13T19:26:11.120Z,49.90
2018-05-13T19:28:38.752Z,50.50
2018-05-13T19:31:06.314Z,50.80
2018-05-13T19:33:33.901Z,51.00
2018-05-13T19:36:01.517Z,51.30
2018-05-13T19:38:29.138Z,51.60
2018-05-13T19:40:57.472Z,51.80
2018-05-13T19:43:25.127Z,51.80
2018-05-13T19:45:53.246Z,52.00
2018-05-13T19:48:21.605Z,52.10
2018-05-13T19:50:49.192Z,52.10
2018-05-13T19:53:16.751Z,52.40
2018-05-13T19:55:45.107Z,52.90
2018-05-13T19:58:12.691Z,52.90
2018-05-13T20:00:41.007Z,53.00
2018-05-13T20:03:08.819Z,53.60
2018-05-13T20:05:36.202Z,53.30
2018-05-13T20:08:03.752Z,53.50
2018-05-13T20:10:31.314Z,53.50
2018-05-13T20:12:58.889Z,54.00
2018-05-13T20:15:27.297Z,54.10
2018-05-13T20:17:54.802Z,54.00
2018-05-13T20:20:23.180Z,54.30
2018-05-13T20:23:03.183Z,54.40
2018-05-13T20:25:30.788Z,54.40
2018-05-13T20:27:58.347Z,54.80
2018-05-13T20:30:26.058Z,55.60
2018-05-13T20:32:53.535Z,55.20
2018-05-13T20:35:21.129Z,55.60
2018-05-13T20:37:48.706Z,55.60
2018-05-13T20:40:16.250Z,55.60
2018-05-13T20:42:43.848Z,55.80
2018-05-13T20:45:11.400Z,56.00
2018-05-13T20:47:38.961Z,56.00
2018-05-13T20:50:06.529Z,56.00
2018-05-13T20:52:34.124Z,56.40
2018-05-13T20:55:01.718Z,56.10
2018-05-13T20:57:29.263Z,56.80
2018-05-13T20:59:56.846Z,57.00
2018-05-13T21:02:25.167Z,57.20
2018-05-13T21:04:52.739Z,57.10
2018-05-13T21:07:20.364Z,57.10
2018-05-13T21:09:47.918Z,57.30
2018-05-13T21:12:15.554Z,57.70
2018-05-13T21:14:43.123Z,57.80
2018-05-13T21:17:10.719Z,57.90
2018-05-13T21:19:38.274Z,57.50
2018-05-13T21:22:05.826Z,58.20
2018-05-13T21:24:34.214Z,58.10
2018-05-13T21:27:02.527Z,58.80
2018-05-13T21:29:30.154Z,58.70
2018-05-13T21:31:57.697Z,59.10
2018-05-13T21:34:25.242Z,58.90
2018-05-13T21:36:52.888Z,59.40
2018-05-13T21:39:20.431Z,59.70
2018-05-13T21:41:47.999Z,59.60
2018-05-13T21:44:15.588Z,59.60
2018-05-13T21:46:43.161Z,59.60
2018-05-13T21:49:11.480Z,60.50
2018-05-13T21:51:39.136Z,60.20
2018-05-13T21:54:06.686Z,61.30
2018-05-13T21:56:34.306Z,61.70
2018-05-13T21:59:01.895Z,62.70
2018-05-13T22:01:29.484Z,62.20
2018-05-13T22:03:57.049Z,63.00
2018-05-13T22:06:24.614Z,62.60
2018-05-13T22:08:52.215Z,63.70
2018-05-13T22:11:20.658Z,64.60
2018-05-13T22:13:48.278Z,64.50
2018-05-13T22:16:16.645Z,64.50
2018-05-13T22:18:45.055Z,65.20
2018-05-13T22:21:12.629Z,65.10
2018-05-13T22:23:40.189Z,65.50
2018-05-13T22:26:07.729Z,66.30
2018-05-13T22:28:35.314Z,66.80
2018-05-13T22:31:02.877Z,67.60
2018-05-13T22:33:30.438Z,67.00
2018-05-13T22:35:58.038Z,67.40
2018-05-13T22:38:25.602Z,68.40
2018-05-13T22:40:53.953Z,70.10
2018-05-13T22:43:22.311Z,70.40
2018-05-13T22:45:49.864Z,70.30
2018-05-13T22:48:17.466Z,69.50
2018-05-13T22:50:45.017Z,70.80
2018-05-13T22:53:12.567Z,70.80
2018-05-13T22:55:40.155Z,71.60
2018-05-13T22:58:07.716Z,71.20
2018-05-13T23:00:35.276Z,71.60
2018-05-13T23:03:02.917Z,71.40
2018-05-13T23:05:30.483Z,72.60
2018-05-13T23:07:57.994Z,74.10
2018-05-13T23:10:25.584Z,74.20
2018-05-13T23:12:53.129Z,74.80
2018-05-13T23:15:20.691Z,75.50
2018-05-13T23:17:48.304Z,75.80
2018-05-13T23:20:15.883Z,76.40
2018-05-13T23:22:44.195Z,77.00
2018-05-13T23:25:11.788Z,77.00
2018-05-13T23:27:39.321Z,75.90
2018-05-13T23:30:06.855Z,77.60
2018-05-13T23:32:34.442Z,76.10
2018-05-13T23:35:01.977Z,76.50
2018-05-13T23:37:29.513Z,77.20
2018-05-13T23:39:57.875Z,77.50
2018-05-13T23:42:25.431Z,77.30
2018-05-13T23:44:53.003Z,77.30
2018-05-13T23:47:20.553Z,77.40
2018-05-13T23:49:48.095Z,77.20
2018-05-13T23:52:15.686Z,77.80
2018-05-13T23:54:44.058Z,78.40
2018-05-13T23:57:11.601Z,78.40
2018-05-13T23:59:39.174Z,77.10
